sensor_id;sensor_type;location;lat;lon;timestamp;P1;durP1;ratioP1;P2;durP2;ratioP2
29516;SDS011;40993;50.594;8.664;2022-08-01T00:00:46;8.52;;;4.10;;
29516;SDS011;40993;50.594;8.664;2022-08-01T00:03:13;7.78;;;4.35;;
29516;SDS011;40993;50.594;8.664;2022-08-01T00:05:41;6.45;;;4.32;;
29516;SDS011;40993;50.594;8.664;2022-08-01T00:08:10;8.20;;;4.25;;
29516;SDS011;40993;50.594;8.664;2022-08-01T00:10:37;6.75;;;4.00;;
29516;SDS011;40993;50.594;8.664;2022-08-01T00:13:05;8.07;;;4.10;;
29516;SDS011;40993;50.594;8.664;2022-08-01T00:15:34;9.20;;;4.40;;
29516;SDS011;40993;50.594;8.664;2022-08-01T00:18:03;7.70;;;4.57;;
29516;SDS011;40993;50.594;8.664;2022-08-01T00:20:30;6.82;;;4.00;;
29516;SDS011;40993;50.594;8.664;2022-08-01T00:22:58;6.97;;;4.05;;
29516;SDS011;40993;50.594;8.664;2022-08-01T00:25:28;13.27;;;4.28;;
29516;SDS011;40993;50.594;8.664;2022-08-01T00:27:59;9.38;;;3.90;;
29516;SDS011;40993;50.594;8.664;2022-08-01T00:30:29;7.15;;;4.13;;
29516;SDS011;40993;50.594;8.664;2022-08-01T00:32:56;7.72;;;4.50;;
29516;SDS011;40993;50.594;8.664;2022-08-01T00:35:25;11.10;;;4.35;;
29516;SDS011;40993;50.594;8.664;2022-08-01T00:37:53;13.05;;;4.60;;
29516;SDS011;40993;50.594;8.664;2022-08-01T00:40:20;5.30;;;3.88;;
29516;SDS011;40993;50.594;8.664;2022-08-01T00:42:48;7.20;;;4.38;;
29516;SDS011;40993;50.594;8.664;2022-08-01T00:45:15;7.13;;;4.30;;
29516;SDS011;40993;50.594;8.664;2022-08-01T00:47:42;11.02;;;4.50;;
29516;SDS011;40993;50.594;8.664;2022-08-01T00:50:10;5.95;;;4.00;;
29516;SDS011;40993;50.594;8.664;2022-08-01T00:52:39;8.40;;;4.63;;
29516;SDS011;40993;50.594;8.664;2022-08-01T00:55:07;11.52;;;4.35;;
29516;SDS011;40993;50.594;8.664;2022-08-01T00:57:40;6.75;;;4.22;;
29516;SDS011;40993;50.594;8.664;2022-08-01T01:00:27;6.00;;;4.55;;
29516;SDS011;40993;50.594;8.664;2022-08-01T01:02:55;6.15;;;4.50;;
29516;SDS011;40993;50.594;8.664;2022-08-01T01:05:23;8.60;;;4.32;;
29516;SDS011;40993;50.594;8.664;2022-08-01T01:07:53;8.68;;;4.63;;
29516;SDS011;40993;50.594;8.664;2022-08-01T01:10:25;8.10;;;4.60;;
29516;SDS011;40993;50.594;8.664;2022-08-01T01:12:59;9.60;;;4.57;;
29516;SDS011;40993;50.594;8.664;2022-08-01T01:15:41;5.43;;;4.47;;
29516;SDS011;40993;50.594;8.664;2022-08-01T01:18:13;6.55;;;4.10;;
29516;SDS011;40993;50.594;8.664;2022-08-01T01:20:44;5.65;;;4.50;;
29516;SDS011;40993;50.594;8.664;2022-08-01T01:23:24;7.55;;;4.80;;
29516;SDS011;40993;50.594;8.664;2022-08-01T01:26:04;5.20;;;4.38;;
29516;SDS011;40993;50.594;8.664;2022-08-01T01:28:40;8.93;;;4.30;;
29516;SDS011;40993;50.594;8.664;2022-08-01T01:31:21;4.95;;;4.05;;
29516;SDS011;40993;50.594;8.664;2022-08-01T01:33:50;5.57;;;4.00;;
29516;SDS011;40993;50.594;8.664;2022-08-01T01:36:18;7.85;;;4.28;;
29516;SDS011;40993;50.594;8.664;2022-08-01T01:38:46;7.75;;;4.20;;
29516;SDS011;40993;50.594;8.664;2022-08-01T01:41:15;8.30;;;4.60;;
29516;SDS011;40993;50.594;8.664;2022-08-01T01:43:44;5.85;;;3.95;;
29516;SDS011;40993;50.594;8.664;2022-08-01T01:46:15;5.05;;;4.13;;
29516;SDS011;40993;50.594;8.664;2022-08-01T01:48:44;4.82;;;4.00;;
29516;SDS011;40993;50.594;8.664;2022-08-01T01:51:13;8.55;;;4.13;;
29516;SDS011;40993;50.594;8.664;2022-08-01T01:53:42;7.82;;;4.38;;
29516;SDS011;40993;50.594;8.664;2022-08-01T01:56:10;6.32;;;4.00;;
29516;SDS011;40993;50.594;8.664;2022-08-01T01:58:38;7.05;;;4.22;;
29516;SDS011;40993;50.594;8.664;2022-08-01T02:01:06;6.43;;;3.97;;
29516;SDS011;40993;50.594;8.664;2022-08-01T02:06:08;8.73;;;4.88;;
29516;SDS011;40993;50.594;8.664;2022-08-01T02:08:36;8.02;;;4.57;;
29516;SDS011;40993;50.594;8.664;2022-08-01T02:11:04;6.43;;;4.25;;
29516;SDS011;40993;50.594;8.664;2022-08-01T02:13:53;6.28;;;4.63;;
29516;SDS011;40993;50.594;8.664;2022-08-01T02:16:24;7.72;;;4.18;;
29516;SDS011;40993;50.594;8.664;2022-08-01T02:18:53;7.72;;;4.95;;
29516;SDS011;40993;50.594;8.664;2022-08-01T02:21:23;7.00;;;4.13;;
29516;SDS011;40993;50.594;8.664;2022-08-01T02:23:54;4.85;;;4.25;;
29516;SDS011;40993;50.594;8.664;2022-08-01T02:26:27;8.30;;;4.55;;
29516;SDS011;40993;50.594;8.664;2022-08-01T02:28:56;6.30;;;4.90;;
29516;SDS011;40993;50.594;8.664;2022-08-01T02:31:24;8.98;;;4.95;;
29516;SDS011;40993;50.594;8.664;2022-08-01T02:33:56;8.38;;;4.78;;
29516;SDS011;40993;50.594;8.664;2022-08-01T02:36:26;8.00;;;5.00;;
29516;SDS011;40993;50.594;8.664;2022-08-01T02:38:59;6.32;;;4.90;;
29516;SDS011;40993;50.594;8.664;2022-08-01T02:41:27;6.57;;;4.70;;
29516;SDS011;40993;50.594;8.664;2022-08-01T02:43:56;5.57;;;4.88;;
29516;SDS011;40993;50.594;8.664;2022-08-01T02:46:28;6.40;;;4.70;;
29516;SDS011;40993;50.594;8.664;2022-08-01T02:49:00;6.60;;;5.00;;
29516;SDS011;40993;50.594;8.664;2022-08-01T02:51:28;6.65;;;5.07;;
29516;SDS011;40993;50.594;8.664;2022-08-01T02:53:57;10.63;;;5.55;;
29516;SDS011;40993;50.594;8.664;2022-08-01T02:56:26;7.00;;;4.97;;
29516;SDS011;40993;50.594;8.664;2022-08-01T02:59:02;8.77;;;4.93;;
29516;SDS011;40993;50.594;8.664;2022-08-01T03:01:32;6.25;;;5.10;;
29516;SDS011;40993;50.594;8.664;2022-08-01T03:04:02;11.50;;;5.28;;
29516;SDS011;40993;50.594;8.664;2022-08-01T03:06:31;7.93;;;4.85;;
29516;SDS011;40993;50.594;8.664;2022-08-01T03:09:00;7.53;;;5.25;;
29516;SDS011;40993;50.594;8.664;2022-08-01T03:11:28;6.97;;;5.68;;
29516;SDS011;40993;50.594;8.664;2022-08-01T03:13:56;9.10;;;5.40;;
29516;SDS011;40993;50.594;8.664;2022-08-01T03:16:26;8.25;;;5.50;;
29516;SDS011;40993;50.594;8.664;2022-08-01T03:18:54;8.30;;;5.63;;
29516;SDS011;40993;50.594;8.664;2022-08-01T03:21:24;11.57;;;5.30;;
29516;SDS011;40993;50.594;8.664;2022-08-01T03:23:53;6.75;;;5.45;;
29516;SDS011;40993;50.594;8.664;2022-08-01T03:26:24;11.48;;;5.45;;
29516;SDS011;40993;50.594;8.664;2022-08-01T03:28:55;6.32;;;4.95;;
29516;SDS011;40993;50.594;8.664;2022-08-01T03:31:24;6.82;;;5.20;;
29516;SDS011;40993;50.594;8.664;2022-08-01T03:33:52;6.85;;;4.90;;
29516;SDS011;40993;50.594;8.664;2022-08-01T03:36:20;8.35;;;5.40;;
29516;SDS011;40993;50.594;8.664;2022-08-01T03:38:51;6.45;;;5.32;;
29516;SDS011;40993;50.594;8.664;2022-08-01T03:41:20;7.68;;;5.60;;
29516;SDS011;40993;50.594;8.664;2022-08-01T03:43:49;7.93;;;5.30;;
29516;SDS011;40993;50.594;8.664;2022-08-01T03:46:32;8.60;;;5.63;;
29516;SDS011;40993;50.594;8.664;2022-08-01T03:49:03;7.32;;;4.70;;
29516;SDS011;40993;50.594;8.664;2022-08-01T03:51:33;9.82;;;5.50;;
29516;SDS011;40993;50.594;8.664;2022-08-01T03:54:02;15.82;;;5.43;;
29516;SDS011;40993;50.594;8.664;2022-08-01T03:56:30;13.23;;;6.10;;
29516;SDS011;40993;50.594;8.664;2022-08-01T03:58:58;6.05;;;5.05;;
29516;SDS011;40993;50.594;8.664;2022-08-01T04:01:26;7.32;;;5.22;;
29516;SDS011;40993;50.594;8.664;2022-08-01T04:03:55;7.50;;;4.90;;
29516;SDS011;40993;50.594;8.664;2022-08-01T04:06:23;8.27;;;5.55;;
29516;SDS011;40993;50.594;8.664;2022-08-01T04:08:50;7.55;;;5.18;;
29516;SDS011;40993;50.594;8.664;2022-08-01T04:11:24;9.23;;;5.15;;
29516;SDS011;40993;50.594;8.664;2022-08-01T04:13:53;7.03;;;5.38;;
29516;SDS011;40993;50.594;8.664;2022-08-01T04:16:22;7.65;;;5.18;;
29516;SDS011;40993;50.594;8.664;2022-08-01T04:18:50;6.28;;;4.97;;
29516;SDS011;40993;50.594;8.664;2022-08-01T04:21:18;8.52;;;4.85;;
29516;SDS011;40993;50.594;8.664;2022-08-01T04:23:48;7.85;;;5.25;;
29516;SDS011;40993;50.594;8.664;2022-08-01T04:26:18;7.22;;;5.43;;
29516;SDS011;40993;50.594;8.664;2022-08-01T04:28:48;7.03;;;4.88;;
29516;SDS011;40993;50.594;8.664;2022-08-01T04:31:17;7.93;;;5.20;;
29516;SDS011;40993;50.594;8.664;2022-08-01T04:33:46;14.52;;;5.57;;
29516;SDS011;40993;50.594;8.664;2022-08-01T04:36:15;8.70;;;4.90;;
29516;SDS011;40993;50.594;8.664;2022-08-01T04:38:45;7.95;;;5.18;;
29516;SDS011;40993;50.594;8.664;2022-08-01T04:41:16;10.52;;;5.05;;
29516;SDS011;40993;50.594;8.664;2022-08-01T04:43:44;8.48;;;5.68;;
29516;SDS011;40993;50.594;8.664;2022-08-01T04:46:14;7.20;;;5.28;;
29516;SDS011;40993;50.594;8.664;2022-08-01T04:48:43;8.55;;;5.60;;
29516;SDS011;40993;50.594;8.664;2022-08-01T04:51:12;7.85;;;6.00;;
29516;SDS011;40993;50.594;8.664;2022-08-01T04:53:41;6.97;;;5.90;;
29516;SDS011;40993;50.594;8.664;2022-08-01T04:56:09;10.48;;;6.20;;
29516;SDS011;40993;50.594;8.664;2022-08-01T04:58:39;10.05;;;7.03;;
29516;SDS011;40993;50.594;8.664;2022-08-01T05:01:07;9.70;;;6.63;;
29516;SDS011;40993;50.594;8.664;2022-08-01T05:03:36;8.23;;;6.55;;
29516;SDS011;40993;50.594;8.664;2022-08-01T05:06:04;12.05;;;6.50;;
29516;SDS011;40993;50.594;8.664;2022-08-01T05:08:32;13.35;;;7.32;;
29516;SDS011;40993;50.594;8.664;2022-08-01T05:10:59;27.67;;;9.23;;
29516;SDS011;40993;50.594;8.664;2022-08-01T05:13:27;16.23;;;8.75;;
29516;SDS011;40993;50.594;8.664;2022-08-01T05:15:54;17.10;;;8.27;;
29516;SDS011;40993;50.594;8.664;2022-08-01T05:18:22;22.45;;;8.73;;
29516;SDS011;40993;50.594;8.664;2022-08-01T05:20:55;34.28;;;9.13;;
29516;SDS011;40993;50.594;8.664;2022-08-01T05:23:22;18.23;;;8.70;;
29516;SDS011;40993;50.594;8.664;2022-08-01T05:26:08;12.65;;;8.93;;
29516;SDS011;40993;50.594;8.664;2022-08-01T05:28:36;15.75;;;8.90;;
29516;SDS011;40993;50.594;8.664;2022-08-01T05:31:03;11.65;;;8.15;;
29516;SDS011;40993;50.594;8.664;2022-08-01T05:33:31;14.07;;;8.55;;
29516;SDS011;40993;50.594;8.664;2022-08-01T05:36:00;17.08;;;9.43;;
29516;SDS011;40993;50.594;8.664;2022-08-01T05:38:27;14.35;;;8.75;;
29516;SDS011;40993;50.594;8.664;2022-08-01T05:40:54;13.95;;;9.45;;
29516;SDS011;40993;50.594;8.664;2022-08-01T05:43:22;10.77;;;8.77;;
29516;SDS011;40993;50.594;8.664;2022-08-01T05:45:54;22.98;;;9.20;;
29516;SDS011;40993;50.594;8.664;2022-08-01T05:48:21;24.33;;;10.50;;
29516;SDS011;40993;50.594;8.664;2022-08-01T05:50:49;13.98;;;9.00;;
29516;SDS011;40993;50.594;8.664;2022-08-01T05:53:24;12.57;;;8.88;;
29516;SDS011;40993;50.594;8.664;2022-08-01T05:55:52;14.90;;;8.63;;
29516;SDS011;40993;50.594;8.664;2022-08-01T05:58:19;12.65;;;8.15;;
29516;SDS011;40993;50.594;8.664;2022-08-01T06:00:46;9.45;;;7.25;;
29516;SDS011;40993;50.594;8.664;2022-08-01T06:03:14;8.70;;;6.93;;
29516;SDS011;40993;50.594;8.664;2022-08-01T06:05:41;10.07;;;7.10;;
29516;SDS011;40993;50.594;8.664;2022-08-01T06:08:09;12.82;;;6.80;;
29516;SDS011;40993;50.594;8.664;2022-08-01T06:10:37;8.32;;;5.45;;
29516;SDS011;40993;50.594;8.664;2022-08-01T06:13:05;10.65;;;5.90;;
29516;SDS011;40993;50.594;8.664;2022-08-01T06:15:32;11.55;;;5.68;;
29516;SDS011;40993;50.594;8.664;2022-08-01T06:18:00;7.10;;;5.97;;
29516;SDS011;40993;50.594;8.664;2022-08-01T06:20:28;11.60;;;5.55;;
29516;SDS011;40993;50.594;8.664;2022-08-01T06:22:56;6.97;;;5.18;;
29516;SDS011;40993;50.594;8.664;2022-08-01T06:25:26;8.57;;;5.30;;
29516;SDS011;40993;50.594;8.664;2022-08-01T06:27:54;17.90;;;5.95;;
29516;SDS011;40993;50.594;8.664;2022-08-01T06:30:22;10.30;;;5.38;;
29516;SDS011;40993;50.594;8.664;2022-08-01T06:32:49;49.63;;;7.75;;
29516;SDS011;40993;50.594;8.664;2022-08-01T06:35:17;32.42;;;5.60;;
29516;SDS011;40993;50.594;8.664;2022-08-01T06:37:44;21.92;;;5.57;;
29516;SDS011;40993;50.594;8.664;2022-08-01T06:40:13;5.65;;;4.60;;
29516;SDS011;40993;50.594;8.664;2022-08-01T06:42:42;6.00;;;4.15;;
29516;SDS011;40993;50.594;8.664;2022-08-01T06:45:13;11.10;;;4.45;;
29516;SDS011;40993;50.594;8.664;2022-08-01T06:47:43;10.85;;;4.18;;
29516;SDS011;40993;50.594;8.664;2022-08-01T06:50:14;7.35;;;3.75;;
29516;SDS011;40993;50.594;8.664;2022-08-01T06:52:42;8.18;;;4.20;;
29516;SDS011;40993;50.594;8.664;2022-08-01T06:55:09;30.10;;;4.60;;
29516;SDS011;40993;50.594;8.664;2022-08-01T06:57:44;15.23;;;5.13;;
29516;SDS011;40993;50.594;8.664;2022-08-01T07:00:14;9.63;;;4.35;;
29516;SDS011;40993;50.594;8.664;2022-08-01T07:02:44;8.73;;;3.85;;
29516;SDS011;40993;50.594;8.664;2022-08-01T07:05:12;6.88;;;3.20;;
29516;SDS011;40993;50.594;8.664;2022-08-01T07:07:40;6.20;;;3.42;;
29516;SDS011;40993;50.594;8.664;2022-08-01T07:10:08;3.67;;;2.92;;
29516;SDS011;40993;50.594;8.664;2022-08-01T07:12:36;4.07;;;2.90;;
29516;SDS011;40993;50.594;8.664;2022-08-01T07:15:04;5.78;;;3.40;;
29516;SDS011;40993;50.594;8.664;2022-08-01T07:17:33;4.95;;;3.10;;
29516;SDS011;40993;50.594;8.664;2022-08-01T07:20:04;9.93;;;3.30;;
29516;SDS011;40993;50.594;8.664;2022-08-01T07:22:35;12.43;;;3.30;;
29516;SDS011;40993;50.594;8.664;2022-08-01T07:25:03;4.57;;;3.10;;
29516;SDS011;40993;50.594;8.664;2022-08-01T07:27:32;3.83;;;2.75;;
29516;SDS011;40993;50.594;8.664;2022-08-01T07:30:00;10.38;;;3.33;;
29516;SDS011;40993;50.594;8.664;2022-08-01T07:32:27;6.28;;;2.70;;
29516;SDS011;40993;50.594;8.664;2022-08-01T07:34:57;14.52;;;8.65;;
29516;SDS011;40993;50.594;8.664;2022-08-01T07:37:25;10.27;;;3.05;;
29516;SDS011;40993;50.594;8.664;2022-08-01T07:40:13;3.33;;;2.60;;
29516;SDS011;40993;50.594;8.664;2022-08-01T07:42:40;6.07;;;2.80;;
29516;SDS011;40993;50.594;8.664;2022-08-01T07:45:09;27.48;;;3.78;;
29516;SDS011;40993;50.594;8.664;2022-08-01T07:47:37;3.33;;;2.50;;
29516;SDS011;40993;50.594;8.664;2022-08-01T07:50:07;5.05;;;2.50;;
29516;SDS011;40993;50.594;8.664;2022-08-01T07:52:34;3.58;;;1.83;;
29516;SDS011;40993;50.594;8.664;2022-08-01T07:55:02;6.97;;;2.30;;
29516;SDS011;40993;50.594;8.664;2022-08-01T07:57:30;5.10;;;2.15;;
29516;SDS011;40993;50.594;8.664;2022-08-01T07:59:57;3.25;;;1.98;;
29516;SDS011;40993;50.594;8.664;2022-08-01T08:02:25;2.63;;;1.80;;
29516;SDS011;40993;50.594;8.664;2022-08-01T08:04:53;2.88;;;2.00;;
29516;SDS011;40993;50.594;8.664;2022-08-01T08:07:21;2.47;;;2.00;;
29516;SDS011;40993;50.594;8.664;2022-08-01T08:09:49;3.38;;;2.50;;
29516;SDS011;40993;50.594;8.664;2022-08-01T08:12:16;3.28;;;2.63;;
29516;SDS011;40993;50.594;8.664;2022-08-01T08:14:54;5.15;;;2.60;;
29516;SDS011;40993;50.594;8.664;2022-08-01T08:17:22;8.88;;;2.30;;
29516;SDS011;40993;50.594;8.664;2022-08-01T08:19:50;96.18;;;7.03;;
29516;SDS011;40993;50.594;8.664;2022-08-01T08:22:17;6.63;;;2.60;;
29516;SDS011;40993;50.594;8.664;2022-08-01T08:24:46;10.32;;;2.92;;
29516;SDS011;40993;50.594;8.664;2022-08-01T08:27:13;7.43;;;2.85;;
29516;SDS011;40993;50.594;8.664;2022-08-01T08:29:41;3.72;;;2.33;;
29516;SDS011;40993;50.594;8.664;2022-08-01T08:32:10;5.10;;;2.88;;
29516;SDS011;40993;50.594;8.664;2022-08-01T08:34:37;3.63;;;2.70;;
29516;SDS011;40993;50.594;8.664;2022-08-01T08:37:05;11.13;;;3.38;;
29516;SDS011;40993;50.594;8.664;2022-08-01T08:39:34;7.43;;;3.20;;
29516;SDS011;40993;50.594;8.664;2022-08-01T08:42:09;59.03;;;6.18;;
29516;SDS011;40993;50.594;8.664;2022-08-01T08:44:37;9.07;;;4.20;;
29516;SDS011;40993;50.594;8.664;2022-08-01T08:47:10;5.90;;;4.00;;
29516;SDS011;40993;50.594;8.664;2022-08-01T08:49:45;13.25;;;4.72;;
29516;SDS011;40993;50.594;8.664;2022-08-01T08:52:14;8.57;;;5.10;;
29516;SDS011;40993;50.594;8.664;2022-08-01T08:54:42;10.50;;;5.82;;
29516;SDS011;40993;50.594;8.664;2022-08-01T08:57:11;12.25;;;6.05;;
29516;SDS011;40993;50.594;8.664;2022-08-01T08:59:40;8.88;;;6.10;;
29516;SDS011;40993;50.594;8.664;2022-08-01T09:02:10;10.82;;;5.75;;
29516;SDS011;40993;50.594;8.664;2022-08-01T09:04:38;8.13;;;4.93;;
29516;SDS011;40993;50.594;8.664;2022-08-01T09:07:06;7.50;;;5.53;;
29516;SDS011;40993;50.594;8.664;2022-08-01T09:09:35;9.32;;;4.65;;
29516;SDS011;40993;50.594;8.664;2022-08-01T09:12:07;8.85;;;4.20;;
29516;SDS011;40993;50.594;8.664;2022-08-01T09:14:36;4.25;;;3.75;;
29516;SDS011;40993;50.594;8.664;2022-08-01T09:17:11;24.60;;;4.70;;
29516;SDS011;40993;50.594;8.664;2022-08-01T09:19:39;9.30;;;3.40;;
29516;SDS011;40993;50.594;8.664;2022-08-01T09:22:08;12.30;;;3.00;;
29516;SDS011;40993;50.594;8.664;2022-08-01T09:24:37;7.05;;;2.53;;
29516;SDS011;40993;50.594;8.664;2022-08-01T09:27:14;4.82;;;2.63;;
29516;SDS011;40993;50.594;8.664;2022-08-01T09:29:48;68.80;;;6.03;;
29516;SDS011;40993;50.594;8.664;2022-08-01T09:32:27;20.35;;;3.67;;
29516;SDS011;40993;50.594;8.664;2022-08-01T09:38:15;9.88;;;2.50;;
29516;SDS011;40993;50.594;8.664;2022-08-01T09:40:47;3.55;;;2.17;;
29516;SDS011;40993;50.594;8.664;2022-08-01T09:43:17;6.43;;;2.20;;
29516;SDS011;40993;50.594;8.664;2022-08-01T09:45:46;11.45;;;2.53;;
29516;SDS011;40993;50.594;8.664;2022-08-01T09:48:18;5.75;;;2.20;;
29516;SDS011;40993;50.594;8.664;2022-08-01T09:50:49;7.95;;;2.35;;
29516;SDS011;40993;50.594;8.664;2022-08-01T09:53:17;5.63;;;1.83;;
29516;SDS011;40993;50.594;8.664;2022-08-01T09:56:01;4.53;;;1.90;;
29516;SDS011;40993;50.594;8.664;2022-08-01T09:58:38;7.32;;;2.10;;
29516;SDS011;40993;50.594;8.664;2022-08-01T10:01:25;4.03;;;2.10;;
29516;SDS011;40993;50.594;8.664;2022-08-01T10:04:04;14.75;;;2.17;;
29516;SDS011;40993;50.594;8.664;2022-08-01T10:06:35;7.82;;;2.03;;
29516;SDS011;40993;50.594;8.664;2022-08-01T10:09:03;15.70;;;1.90;;
29516;SDS011;40993;50.594;8.664;2022-08-01T10:11:31;6.38;;;2.00;;
29516;SDS011;40993;50.594;8.664;2022-08-01T10:14:01;4.22;;;2.25;;
29516;SDS011;40993;50.594;8.664;2022-08-01T10:16:30;15.88;;;2.50;;
29516;SDS011;40993;50.594;8.664;2022-08-01T10:19:02;7.80;;;2.35;;
29516;SDS011;40993;50.594;8.664;2022-08-01T10:21:39;7.05;;;2.35;;
29516;SDS011;40993;50.594;8.664;2022-08-01T10:24:24;3.40;;;2.00;;
29516;SDS011;40993;50.594;8.664;2022-08-01T10:26:54;4.00;;;1.80;;
29516;SDS011;40993;50.594;8.664;2022-08-01T10:29:31;9.27;;;2.08;;
29516;SDS011;40993;50.594;8.664;2022-08-01T10:32:25;17.17;;;2.58;;
29516;SDS011;40993;50.594;8.664;2022-08-01T10:34:54;11.13;;;1.98;;
29516;SDS011;40993;50.594;8.664;2022-08-01T10:37:22;6.85;;;1.90;;
29516;SDS011;40993;50.594;8.664;2022-08-01T10:39:52;6.22;;;2.08;;
29516;SDS011;40993;50.594;8.664;2022-08-01T10:42:40;6.38;;;2.15;;
29516;SDS011;40993;50.594;8.664;2022-08-01T10:45:09;5.90;;;1.90;;
29516;SDS011;40993;50.594;8.664;2022-08-01T10:47:40;3.75;;;1.83;;
29516;SDS011;40993;50.594;8.664;2022-08-01T10:50:17;6.10;;;2.20;;
29516;SDS011;40993;50.594;8.664;2022-08-01T10:53:07;2.67;;;1.70;;
29516;SDS011;40993;50.594;8.664;2022-08-01T10:55:48;3.15;;;1.77;;
29516;SDS011;40993;50.594;8.664;2022-08-01T10:58:23;3.33;;;1.80;;
29516;SDS011;40993;50.594;8.664;2022-08-01T11:03:58;2.92;;;1.55;;
29516;SDS011;40993;50.594;8.664;2022-08-01T11:06:39;10.75;;;1.55;;
29516;SDS011;40993;50.594;8.664;2022-08-01T11:09:17;3.80;;;1.60;;
29516;SDS011;40993;50.594;8.664;2022-08-01T11:12:03;3.75;;;1.80;;
29516;SDS011;40993;50.594;8.664;2022-08-01T11:17:56;2.63;;;1.35;;
29516;SDS011;40993;50.594;8.664;2022-08-01T11:20:27;5.20;;;1.50;;
29516;SDS011;40993;50.594;8.664;2022-08-01T11:29:10;6.28;;;1.58;;
29516;SDS011;40993;50.594;8.664;2022-08-01T11:31:46;60.63;;;4.97;;
29516;SDS011;40993;50.594;8.664;2022-08-01T11:34:14;8.98;;;1.83;;
29516;SDS011;40993;50.594;8.664;2022-08-01T11:36:43;3.78;;;1.50;;
29516;SDS011;40993;50.594;8.664;2022-08-01T11:39:28;2.75;;;1.42;;
29516;SDS011;40993;50.594;8.664;2022-08-01T11:41:58;5.18;;;1.30;;
29516;SDS011;40993;50.594;8.664;2022-08-01T11:44:49;2.42;;;1.40;;
29516;SDS011;40993;50.594;8.664;2022-08-01T11:47:17;10.00;;;1.85;;
29516;SDS011;40993;50.594;8.664;2022-08-01T11:49:47;4.38;;;1.42;;
29516;SDS011;40993;50.594;8.664;2022-08-01T11:52:25;6.15;;;1.58;;
29516;SDS011;40993;50.594;8.664;2022-08-01T11:54:54;6.72;;;1.50;;
29516;SDS011;40993;50.594;8.664;2022-08-01T11:57:23;6.90;;;1.60;;
29516;SDS011;40993;50.594;8.664;2022-08-01T12:00:00;2.35;;;1.40;;
29516;SDS011;40993;50.594;8.664;2022-08-01T12:02:40;13.45;;;2.08;;
29516;SDS011;40993;50.594;8.664;2022-08-01T12:05:11;5.40;;;1.80;;
29516;SDS011;40993;50.594;8.664;2022-08-01T12:07:42;6.53;;;1.70;;
29516;SDS011;40993;50.594;8.664;2022-08-01T12:10:11;10.48;;;1.73;;
29516;SDS011;40993;50.594;8.664;2022-08-01T12:12:42;13.73;;;1.98;;
29516;SDS011;40993;50.594;8.664;2022-08-01T12:15:10;5.15;;;2.03;;
29516;SDS011;40993;50.594;8.664;2022-08-01T12:17:39;6.50;;;1.88;;
29516;SDS011;40993;50.594;8.664;2022-08-01T12:20:23;8.05;;;2.03;;
29516;SDS011;40993;50.594;8.664;2022-08-01T12:22:54;4.25;;;1.60;;
29516;SDS011;40993;50.594;8.664;2022-08-01T12:25:22;6.63;;;1.50;;
29516;SDS011;40993;50.594;8.664;2022-08-01T12:27:50;4.40;;;1.80;;
29516;SDS011;40993;50.594;8.664;2022-08-01T12:30:21;3.20;;;1.70;;
29516;SDS011;40993;50.594;8.664;2022-08-01T12:32:50;6.60;;;1.90;;
29516;SDS011;40993;50.594;8.664;2022-08-01T12:35:19;7.63;;;1.80;;
29516;SDS011;40993;50.594;8.664;2022-08-01T12:37:49;5.35;;;1.50;;
29516;SDS011;40993;50.594;8.664;2022-08-01T12:40:19;16.88;;;1.98;;
29516;SDS011;40993;50.594;8.664;2022-08-01T12:42:48;3.17;;;1.30;;
29516;SDS011;40993;50.594;8.664;2022-08-01T12:45:18;3.60;;;1.30;;
29516;SDS011;40993;50.594;8.664;2022-08-01T12:47:46;4.13;;;1.50;;
29516;SDS011;40993;50.594;8.664;2022-08-01T12:50:15;3.10;;;1.10;;
29516;SDS011;40993;50.594;8.664;2022-08-01T12:52:43;8.75;;;1.90;;
29516;SDS011;40993;50.594;8.664;2022-08-01T12:55:12;8.13;;;1.45;;
29516;SDS011;40993;50.594;8.664;2022-08-01T12:57:42;1.60;;;1.20;;
29516;SDS011;40993;50.594;8.664;2022-08-01T13:00:16;4.43;;;1.00;;
29516;SDS011;40993;50.594;8.664;2022-08-01T13:05:13;2.42;;;1.02;;
29516;SDS011;40993;50.594;8.664;2022-08-01T13:07:45;3.70;;;1.10;;
29516;SDS011;40993;50.594;8.664;2022-08-01T13:10:14;6.88;;;1.20;;
29516;SDS011;40993;50.594;8.664;2022-08-01T13:12:51;5.90;;;1.20;;
29516;SDS011;40993;50.594;8.664;2022-08-01T13:15:21;11.02;;;1.48;;
29516;SDS011;40993;50.594;8.664;2022-08-01T13:17:51;8.73;;;1.50;;
29516;SDS011;40993;50.594;8.664;2022-08-01T13:20:26;2.03;;;1.20;;
29516;SDS011;40993;50.594;8.664;2022-08-01T13:23:09;5.00;;;1.50;;
29516;SDS011;40993;50.594;8.664;2022-08-01T13:25:46;1.75;;;1.00;;
29516;SDS011;40993;50.594;8.664;2022-08-01T13:28:17;2.28;;;1.10;;
29516;SDS011;40993;50.594;8.664;2022-08-01T13:30:52;7.13;;;1.40;;
29516;SDS011;40993;50.594;8.664;2022-08-01T13:33:24;9.70;;;1.48;;
29516;SDS011;40993;50.594;8.664;2022-08-01T13:35:55;4.20;;;1.25;;
29516;SDS011;40993;50.594;8.664;2022-08-01T13:38:23;4.55;;;1.30;;
29516;SDS011;40993;50.594;8.664;2022-08-01T13:41:05;4.10;;;1.20;;
29516;SDS011;40993;50.594;8.664;2022-08-01T13:43:33;2.95;;;1.20;;
29516;SDS011;40993;50.594;8.664;2022-08-01T13:46:21;7.22;;;1.35;;
29516;SDS011;40993;50.594;8.664;2022-08-01T13:48:50;10.77;;;1.45;;
29516;SDS011;40993;50.594;8.664;2022-08-01T13:51:17;12.48;;;1.50;;
29516;SDS011;40993;50.594;8.664;2022-08-01T13:53:48;7.90;;;1.15;;
29516;SDS011;40993;50.594;8.664;2022-08-01T13:56:15;3.83;;;1.10;;
29516;SDS011;40993;50.594;8.664;2022-08-01T13:58:45;2.40;;;1.30;;
29516;SDS011;40993;50.594;8.664;2022-08-01T14:01:13;17.20;;;1.50;;
29516;SDS011;40993;50.594;8.664;2022-08-01T14:03:40;6.80;;;1.50;;
29516;SDS011;40993;50.594;8.664;2022-08-01T14:06:07;3.53;;;1.17;;
29516;SDS011;40993;50.594;8.664;2022-08-01T14:08:35;2.38;;;1.10;;
29516;SDS011;40993;50.594;8.664;2022-08-01T14:11:02;7.38;;;1.40;;
29516;SDS011;40993;50.594;8.664;2022-08-01T14:13:32;5.65;;;1.50;;
29516;SDS011;40993;50.594;8.664;2022-08-01T14:16:03;8.07;;;1.45;;
29516;SDS011;40993;50.594;8.664;2022-08-01T14:18:31;5.50;;;1.35;;
29516;SDS011;40993;50.594;8.664;2022-08-01T14:21:03;3.20;;;1.20;;
29516;SDS011;40993;50.594;8.664;2022-08-01T14:23:31;2.97;;;1.30;;
29516;SDS011;40993;50.594;8.664;2022-08-01T14:25:58;15.15;;;1.92;;
29516;SDS011;40993;50.594;8.664;2022-08-01T14:28:36;6.22;;;1.70;;
29516;SDS011;40993;50.594;8.664;2022-08-01T14:31:05;12.30;;;1.98;;
29516;SDS011;40993;50.594;8.664;2022-08-01T14:33:34;9.73;;;2.00;;
29516;SDS011;40993;50.594;8.664;2022-08-01T14:36:01;6.85;;;1.65;;
29516;SDS011;40993;50.594;8.664;2022-08-01T14:38:49;4.55;;;1.23;;
29516;SDS011;40993;50.594;8.664;2022-08-01T14:41:17;5.07;;;1.40;;
29516;SDS011;40993;50.594;8.664;2022-08-01T14:43:45;9.55;;;1.50;;
29516;SDS011;40993;50.594;8.664;2022-08-01T14:46:13;2.15;;;1.10;;
29516;SDS011;40993;50.594;8.664;2022-08-01T14:48:41;2.20;;;1.42;;
29516;SDS011;40993;50.594;8.664;2022-08-01T14:51:08;4.38;;;1.58;;
29516;SDS011;40993;50.594;8.664;2022-08-01T14:53:36;2.85;;;1.38;;
29516;SDS011;40993;50.594;8.664;2022-08-01T14:56:04;3.55;;;1.30;;
29516;SDS011;40993;50.594;8.664;2022-08-01T14:58:32;6.50;;;1.40;;
29516;SDS011;40993;50.594;8.664;2022-08-01T15:01:00;2.30;;;1.42;;
29516;SDS011;40993;50.594;8.664;2022-08-01T15:03:29;4.25;;;1.35;;
29516;SDS011;40993;50.594;8.664;2022-08-01T15:05:57;6.45;;;1.00;;
29516;SDS011;40993;50.594;8.664;2022-08-01T15:08:25;4.82;;;1.10;;
29516;SDS011;40993;50.594;8.664;2022-08-01T15:10:53;2.20;;;0.90;;
29516;SDS011;40993;50.594;8.664;2022-08-01T15:13:20;3.35;;;0.93;;
29516;SDS011;40993;50.594;8.664;2022-08-01T15:15:48;7.63;;;1.00;;
29516;SDS011;40993;50.594;8.664;2022-08-01T15:18:15;0.98;;;0.70;;
29516;SDS011;40993;50.594;8.664;2022-08-01T15:20:44;3.13;;;0.80;;
29516;SDS011;40993;50.594;8.664;2022-08-01T15:23:12;8.90;;;1.10;;
29516;SDS011;40993;50.594;8.664;2022-08-01T15:25:39;1.23;;;0.80;;